sensor_id;sensor_type;location;lat;lon;timestamp;temperature;humidity
9223;DHT22;7557;51.698;3.942;2023-04-24T00:01:49;11.60;99.90
9223;DHT22;7557;51.698;3.942;2023-04-24T00:04:17;11.70;99.90
9223;DHT22;7557;51.698;3.942;2023-04-24T00:06:44;11.70;99.90
9223;DHT22;7557;51.698;3.942;2023-04-24T00:09:15;11.60;99.90
9223;DHT22;7557;51.698;3.942;2023-04-24T00:11:44;11.60;99.90
9223;DHT22;7557;51.698;3.942;2023-04-24T00:14:11;11.60;99.90
9223;DHT22;7557;51.698;3.942;2023-04-24T00:16:38;11.60;99.90
9223;DHT22;7557;51.698;3.942;2023-04-24T00:19:05;11.70;99.90
9223;DHT22;7557;51.698;3.942;2023-04-24T00:21:32;11.70;99.90
9223;DHT22;7557;51.698;3.942;2023-04-24T00:23:59;11.60;99.90
9223;DHT22;7557;51.698;3.942;2023-04-24T00:26:27;11.60;99.90
9223;DHT22;7557;51.698;3.942;2023-04-24T00:28:55;11.70;99.90
9223;DHT22;7557;51.698;3.942;2023-04-24T00:31:22;11.70;99.90
9223;DHT22;7557;51.698;3.942;2023-04-24T00:33:50;11.60;99.90
9223;DHT22;7557;51.698;3.942;2023-04-24T00:36:17;11.60;99.90
9223;DHT22;7557;51.698;3.942;2023-04-24T00:38:46;11.60;99.90
9223;DHT22;7557;51.698;3.942;2023-04-24T00:41:13;11.70;99.90
9223;DHT22;7557;51.698;3.942;2023-04-24T00:43:41;11.70;99.90
9223;DHT22;7557;51.698;3.942;2023-04-24T00:46:09;11.70;99.90
9223;DHT22;7557;51.698;3.942;2023-04-24T00:48:46;11.70;99.90
9223;DHT22;7557;51.698;3.942;2023-04-24T00:51:13;11.60;99.90
9223;DHT22;7557;51.698;3.942;2023-04-24T00:53:41;11.60;99.90
9223;DHT22;7557;51.698;3.942;2023-04-24T00:56:08;11.60;99.90
9223;DHT22;7557;51.698;3.942;2023-04-24T00:58:36;11.60;99.90
9223;DHT22;7557;51.698;3.942;2023-04-24T01:01:03;11.60;99.90
9223;DHT22;7557;51.698;3.942;2023-04-24T01:03:34;11.50;99.90
9223;DHT22;7557;51.698;3.942;2023-04-24T01:06:03;11.50;99.90
9223;DHT22;7557;51.698;3.942;2023-04-24T01:08:31;11.50;99.90
9223;DHT22;7557;51.698;3.942;2023-04-24T01:10:59;11.40;99.90
9223;DHT22;7557;51.698;3.942;2023-04-24T01:13:28;11.50;99.90
9223;DHT22;7557;51.698;3.942;2023-04-24T01:15:56;11.40;99.90
9223;DHT22;7557;51.698;3.942;2023-04-24T01:18:23;11.40;99.90
9223;DHT22;7557;51.698;3.942;2023-04-24T01:20:53;11.30;99.90
9223;DHT22;7557;51.698;3.942;2023-04-24T01:23:25;11.30;99.90
9223;DHT22;7557;51.698;3.942;2023-04-24T01:25:52;11.30;99.90
9223;DHT22;7557;51.698;3.942;2023-04-24T01:28:20;11.20;99.90
9223;DHT22;7557;51.698;3.942;2023-04-24T01:30:47;11.20;99.90
9223;DHT22;7557;51.698;3.942;2023-04-24T01:33:15;11.30;99.90
9223;DHT22;7557;51.698;3.942;2023-04-24T01:35:43;11.30;99.90
9223;DHT22;7557;51.698;3.942;2023-04-24T01:38:10;11.30;99.90
9223;DHT22;7557;51.698;3.942;2023-04-24T01:40:39;11.30;99.90
9223;DHT22;7557;51.698;3.942;2023-04-24T01:43:07;11.20;99.90
9223;DHT22;7557;51.698;3.942;2023-04-24T01:45:34;11.20;99.90
9223;DHT22;7557;51.698;3.942;2023-04-24T01:48:01;11.20;99.90
9223;DHT22;7557;51.698;3.942;2023-04-24T01:50:29;11.20;99.90
9223;DHT22;7557;51.698;3.942;2023-04-24T01:52:56;11.30;99.90
9223;DHT22;7557;51.698;3.942;2023-04-24T01:55:23;11.30;99.90
9223;DHT22;7557;51.698;3.942;2023-04-24T01:57:52;11.30;99.90
9223;DHT22;7557;51.698;3.942;2023-04-24T02:00:22;11.30;99.90
9223;DHT22;7557;51.698;3.942;2023-04-24T02:02:49;11.30;99.90
9223;DHT22;7557;51.698;3.942;2023-04-24T02:05:16;11.20;99.90
9223;DHT22;7557;51.698;3.942;2023-04-24T02:07:44;11.30;99.90
9223;DHT22;7557;51.698;3.942;2023-04-24T02:10:11;11.30;99.90
9223;DHT22;7557;51.698;3.942;2023-04-24T02:12:38;11.40;99.90
9223;DHT22;7557;51.698;3.942;2023-04-24T02:15:07;11.30;99.90
9223;DHT22;7557;51.698;3.942;2023-04-24T02:17:35;11.20;99.90
9223;DHT22;7557;51.698;3.942;2023-04-24T02:20:02;11.10;99.90
9223;DHT22;7557;51.698;3.942;2023-04-24T02:22:30;11.10;99.90
9223;DHT22;7557;51.698;3.942;2023-04-24T02:24:57;11.10;99.90
9223;DHT22;7557;51.698;3.942;2023-04-24T02:27:24;11.10;99.90
9223;DHT22;7557;51.698;3.942;2023-04-24T02:29:52;11.10;99.90
9223;DHT22;7557;51.698;3.942;2023-04-24T02:32:20;11.10;99.90
9223;DHT22;7557;51.698;3.942;2023-04-24T02:34:47;11.10;99.90
9223;DHT22;7557;51.698;3.942;2023-04-24T02:37:15;11.10;99.90
9223;DHT22;7557;51.698;3.942;2023-04-24T02:39:42;10.90;99.90
9223;DHT22;7557;51.698;3.942;2023-04-24T02:42:09;10.90;99.90
9223;DHT22;7557;51.698;3.942;2023-04-24T02:44:36;10.80;99.90
9223;DHT22;7557;51.698;3.942;2023-04-24T02:47:04;10.80;99.90
9223;DHT22;7557;51.698;3.942;2023-04-24T02:49:32;10.70;99.90
9223;DHT22;7557;51.698;3.942;2023-04-24T02:52:00;10.70;99.90
9223;DHT22;7557;51.698;3.942;2023-04-24T02:54:27;10.70;99.90
9223;DHT22;7557;51.698;3.942;2023-04-24T02:56:54;10.70;99.90
9223;DHT22;7557;51.698;3.942;2023-04-24T02:59:22;10.60;99.90
9223;DHT22;7557;51.698;3.942;2023-04-24T03:01:49;10.50;99.90
9223;DHT22;7557;51.698;3.942;2023-04-24T03:04:17;10.40;99.90
9223;DHT22;7557;51.698;3.942;2023-04-24T03:06:47;10.30;99.90
9223;DHT22;7557;51.698;3.942;2023-04-24T03:09:14;10.20;99.90
9223;DHT22;7557;51.698;3.942;2023-04-24T03:11:41;10.20;99.90
9223;DHT22;7557;51.698;3.942;2023-04-24T03:14:09;10.10;99.90
9223;DHT22;7557;51.698;3.942;2023-04-24T03:16:36;10.10;99.90
9223;DHT22;7557;51.698;3.942;2023-04-24T03:19:03;10.00;99.90
9223;DHT22;7557;51.698;3.942;2023-04-24T03:21:30;9.90;99.90
9223;DHT22;7557;51.698;3.942;2023-04-24T03:23:59;9.90;99.90
9223;DHT22;7557;51.698;3.942;2023-04-24T03:26:26;9.90;99.90
9223;DHT22;7557;51.698;3.942;2023-04-24T03:28:54;9.90;99.90
9223;DHT22;7557;51.698;3.942;2023-04-24T03:31:22;9.80;99.90
9223;DHT22;7557;51.698;3.942;2023-04-24T03:33:49;9.80;99.90
9223;DHT22;7557;51.698;3.942;2023-04-24T03:36:16;9.80;99.90
9223;DHT22;7557;51.698;3.942;2023-04-24T03:38:44;9.70;99.90
9223;DHT22;7557;51.698;3.942;2023-04-24T03:41:13;9.70;99.90
9223;DHT22;7557;51.698;3.942;2023-04-24T03:43:40;9.60;99.90
9223;DHT22;7557;51.698;3.942;2023-04-24T03:46:07;9.60;99.90
9223;DHT22;7557;51.698;3.942;2023-04-24T03:48:35;9.60;99.90
9223;DHT22;7557;51.698;3.942;2023-04-24T03:51:02;9.60;99.90
9223;DHT22;7557;51.698;3.942;2023-04-24T03:53:29;9.60;99.90
9223;DHT22;7557;51.698;3.942;2023-04-24T03:55:57;9.60;99.90
9223;DHT22;7557;51.698;3.942;2023-04-24T03:58:25;9.60;99.90
9223;DHT22;7557;51.698;3.942;2023-04-24T04:00:52;9.60;99.90
9223;DHT22;7557;51.698;3.942;2023-04-24T04:03:19;9.60;99.90
9223;DHT22;7557;51.698;3.942;2023-04-24T04:05:47;9.60;99.90
9223;DHT22;7557;51.698;3.942;2023-04-24T04:08:14;9.50;99.90
9223;DHT22;7557;51.698;3.942;2023-04-24T04:10:41;9.50;99.90
9223;DHT22;7557;51.698;3.942;2023-04-24T04:13:09;9.50;99.90
9223;DHT22;7557;51.698;3.942;2023-04-24T04:15:37;9.40;99.90
9223;DHT22;7557;51.698;3.942;2023-04-24T04:18:04;9.40;99.90
9223;DHT22;7557;51.698;3.942;2023-04-24T04:20:32;9.40;99.90
9223;DHT22;7557;51.698;3.942;2023-04-24T04:22:59;9.40;99.90
9223;DHT22;7557;51.698;3.942;2023-04-24T04:25:26;9.40;99.90
9223;DHT22;7557;51.698;3.942;2023-04-24T04:27:54;9.40;99.90
9223;DHT22;7557;51.698;3.942;2023-04-24T04:30:23;9.40;99.90
9223;DHT22;7557;51.698;3.942;2023-04-24T04:32:53;9.40;99.90
9223;DHT22;7557;51.698;3.942;2023-04-24T04:35:20;9.50;99.90
9223;DHT22;7557;51.698;3.942;2023-04-24T04:37:47;9.50;99.90
9223;DHT22;7557;51.698;3.942;2023-04-24T04:40:14;9.50;99.90
9223;DHT22;7557;51.698;3.942;2023-04-24T04:42:41;9.50;99.90
9223;DHT22;7557;51.698;3.942;2023-04-24T04:45:11;9.50;99.90
9223;DHT22;7557;51.698;3.942;2023-04-24T04:47:38;9.50;99.90
9223;DHT22;7557;51.698;3.942;2023-04-24T04:50:08;9.50;99.90
9223;DHT22;7557;51.698;3.942;2023-04-24T04:52:36;9.60;99.90
9223;DHT22;7557;51.698;3.942;2023-04-24T04:55:03;9.60;99.90
9223;DHT22;7557;51.698;3.942;2023-04-24T04:57:31;9.60;99.90
9223;DHT22;7557;51.698;3.942;2023-04-24T04:59:58;9.60;99.90
9223;DHT22;7557;51.698;3.942;2023-04-24T05:02:25;9.60;99.90
9223;DHT22;7557;51.698;3.942;2023-04-24T05:04:52;9.60;99.90
9223;DHT22;7557;51.698;3.942;2023-04-24T05:07:21;9.60;99.90
9223;DHT22;7557;51.698;3.942;2023-04-24T05:09:48;9.70;99.90
9223;DHT22;7557;51.698;3.942;2023-04-24T05:12:17;9.60;99.90
9223;DHT22;7557;51.698;3.942;2023-04-24T05:14:44;9.70;99.90
9223;DHT22;7557;51.698;3.942;2023-04-24T05:17:11;9.70;99.90
9223;DHT22;7557;51.698;3.942;2023-04-24T05:19:38;9.60;99.90
9223;DHT22;7557;51.698;3.942;2023-04-24T05:22:05;9.60;99.90
9223;DHT22;7557;51.698;3.942;2023-04-24T05:24:34;9.60;99.90
9223;DHT22;7557;51.698;3.942;2023-04-24T05:27:01;9.70;99.90
9223;DHT22;7557;51.698;3.942;2023-04-24T05:29:30;9.70;99.90
9223;DHT22;7557;51.698;3.942;2023-04-24T05:31:59;9.60;99.90
9223;DHT22;7557;51.698;3.942;2023-04-24T05:34:26;9.60;99.90
9223;DHT22;7557;51.698;3.942;2023-04-24T05:36:54;9.60;99.90
9223;DHT22;7557;51.698;3.942;2023-04-24T05:39:21;9.60;99.90
9223;DHT22;7557;51.698;3.942;2023-04-24T05:41:49;9.60;99.90
9223;DHT22;7557;51.698;3.942;2023-04-24T05:44:16;9.60;99.90
9223;DHT22;7557;51.698;3.942;2023-04-24T05:46:44;9.60;99.90
9223;DHT22;7557;51.698;3.942;2023-04-24T05:49:11;9.60;99.90
9223;DHT22;7557;51.698;3.942;2023-04-24T05:51:38;9.60;99.90
9223;DHT22;7557;51.698;3.942;2023-04-24T05:54:06;9.60;99.90
9223;DHT22;7557;51.698;3.942;2023-04-24T05:56:33;9.60;99.90
9223;DHT22;7557;51.698;3.942;2023-04-24T05:59:01;9.70;99.90
9223;DHT22;7557;51.698;3.942;2023-04-24T06:01:29;9.70;99.90
9223;DHT22;7557;51.698;3.942;2023-04-24T06:03:57;9.70;99.90
9223;DHT22;7557;51.698;3.942;2023-04-24T06:06:24;9.70;99.90
9223;DHT22;7557;51.698;3.942;2023-04-24T06:08:51;9.70;99.90
9223;DHT22;7557;51.698;3.942;2023-04-24T06:11:18;9.80;99.90
9223;DHT22;7557;51.698;3.942;2023-04-24T06:13:46;9.80;99.90
9223;DHT22;7557;51.698;3.942;2023-04-24T06:16:14;9.80;99.90
9223;DHT22;7557;51.698;3.942;2023-04-24T06:18:41;9.90;99.90
9223;DHT22;7557;51.698;3.942;2023-04-24T06:21:09;9.90;99.90
9223;DHT22;7557;51.698;3.942;2023-04-24T06:23:36;9.90;99.90
9223;DHT22;7557;51.698;3.942;2023-04-24T06:26:03;9.90;99.90
9223;DHT22;7557;51.698;3.942;2023-04-24T06:28:31;9.80;99.90
9223;DHT22;7557;51.698;3.942;2023-04-24T06:30:58;9.80;99.90
9223;DHT22;7557;51.698;3.942;2023-04-24T06:33:27;9.70;99.90
9223;DHT22;7557;51.698;3.942;2023-04-24T06:35:54;9.60;99.90
9223;DHT22;7557;51.698;3.942;2023-04-24T06:38:21;9.60;99.90
9223;DHT22;7557;51.698;3.942;2023-04-24T06:40:49;9.60;99.90
9223;DHT22;7557;51.698;3.942;2023-04-24T06:43:17;9.60;99.90
9223;DHT22;7557;51.698;3.942;2023-04-24T06:45:45;9.60;99.90
9223;DHT22;7557;51.698;3.942;2023-04-24T06:48:12;9.60;99.90
9223;DHT22;7557;51.698;3.942;2023-04-24T06:50:41;9.60;99.90
9223;DHT22;7557;51.698;3.942;2023-04-24T06:53:08;9.70;99.90
9223;DHT22;7557;51.698;3.942;2023-04-24T06:55:38;9.70;99.90
9223;DHT22;7557;51.698;3.942;2023-04-24T06:58:05;9.80;99.90
9223;DHT22;7557;51.698;3.942;2023-04-24T07:00:33;9.80;99.90
9223;DHT22;7557;51.698;3.942;2023-04-24T07:03:01;9.80;99.90
9223;DHT22;7557;51.698;3.942;2023-04-24T07:05:28;9.80;99.90
9223;DHT22;7557;51.698;3.942;2023-04-24T07:07:57;9.80;99.90
9223;DHT22;7557;51.698;3.942;2023-04-24T07:10:25;9.90;99.90
9223;DHT22;7557;51.698;3.942;2023-04-24T07:12:54;9.90;99.90
9223;DHT22;7557;51.698;3.942;2023-04-24T07:15:21;9.80;99.90
9223;DHT22;7557;51.698;3.942;2023-04-24T07:17:49;9.70;99.90
9223;DHT22;7557;51.698;3.942;2023-04-24T07:20:16;9.70;99.90
9223;DHT22;7557;51.698;3.942;2023-04-24T07:22:43;9.70;99.90
9223;DHT22;7557;51.698;3.942;2023-04-24T07:25:12;9.70;99.90
9223;DHT22;7557;51.698;3.942;2023-04-24T07:27:39;9.80;99.90
9223;DHT22;7557;51.698;3.942;2023-04-24T07:30:07;9.80;99.90
9223;DHT22;7557;51.698;3.942;2023-04-24T07:32:35;9.80;99.90
9223;DHT22;7557;51.698;3.942;2023-04-24T07:35:02;9.80;99.90
9223;DHT22;7557;51.698;3.942;2023-04-24T07:37:29;9.80;99.90
9223;DHT22;7557;51.698;3.942;2023-04-24T07:39:57;9.80;99.90
9223;DHT22;7557;51.698;3.942;2023-04-24T07:42:25;9.90;99.90
9223;DHT22;7557;51.698;3.942;2023-04-24T07:44:53;9.80;99.90
9223;DHT22;7557;51.698;3.942;2023-04-24T07:47:20;9.80;99.90
9223;DHT22;7557;51.698;3.942;2023-04-24T07:49:47;9.70;99.90
9223;DHT22;7557;51.698;3.942;2023-04-24T07:52:15;9.80;99.90
9223;DHT22;7557;51.698;3.942;2023-04-24T07:54:42;9.80;99.90
9223;DHT22;7557;51.698;3.942;2023-04-24T07:57:09;9.90;99.90
9223;DHT22;7557;51.698;3.942;2023-04-24T07:59:38;10.00;99.90
9223;DHT22;7557;51.698;3.942;2023-04-24T08:02:06;10.00;99.90
9223;DHT22;7557;51.698;3.942;2023-04-24T08:04:33;10.00;99.90
9223;DHT22;7557;51.698;3.942;2023-04-24T08:07:00;10.10;99.90
9223;DHT22;7557;51.698;3.942;2023-04-24T08:09:27;10.20;99.90
9223;DHT22;7557;51.698;3.942;2023-04-24T08:11:55;10.20;99.90
9223;DHT22;7557;51.698;3.942;2023-04-24T08:14:22;10.30;99.90
9223;DHT22;7557;51.698;3.942;2023-04-24T08:16:52;10.50;99.90
9223;DHT22;7557;51.698;3.942;2023-04-24T08:19:19;10.50;99.90
9223;DHT22;7557;51.698;3.942;2023-04-24T08:21:46;10.60;99.90
9223;DHT22;7557;51.698;3.942;2023-04-24T08:24:13;10.80;99.90
9223;DHT22;7557;51.698;3.942;2023-04-24T08:26:41;10.90;99.90
9223;DHT22;7557;51.698;3.942;2023-04-24T08:29:08;11.00;99.90
9223;DHT22;7557;51.698;3.942;2023-04-24T08:31:35;11.00;99.90
9223;DHT22;7557;51.698;3.942;2023-04-24T08:34:04;11.00;99.90
9223;DHT22;7557;51.698;3.942;2023-04-24T08:36:32;11.00;99.90
9223;DHT22;7557;51.698;3.942;2023-04-24T08:38:59;10.80;99.90
9223;DHT22;7557;51.698;3.942;2023-04-24T08:41:28;10.60;99.90
9223;DHT22;7557;51.698;3.942;2023-04-24T08:43:56;10.50;99.90
9223;DHT22;7557;51.698;3.942;2023-04-24T08:46:24;10.40;99.90
9223;DHT22;7557;51.698;3.942;2023-04-24T08:48:52;10.30;99.90
9223;DHT22;7557;51.698;3.942;2023-04-24T08:51:21;10.30;99.90
9223;DHT22;7557;51.698;3.942;2023-04-24T08:53:49;10.30;99.90
9223;DHT22;7557;51.698;3.942;2023-04-24T08:56:19;10.30;99.90
9223;DHT22;7557;51.698;3.942;2023-04-24T08:58:47;10.40;99.90
9223;DHT22;7557;51.698;3.942;2023-04-24T09:01:15;10.50;99.90
9223;DHT22;7557;51.698;3.942;2023-04-24T09:03:42;10.50;99.90
9223;DHT22;7557;51.698;3.942;2023-04-24T09:06:10;10.60;99.90
9223;DHT22;7557;51.698;3.942;2023-04-24T09:08:41;10.60;99.90
9223;DHT22;7557;51.698;3.942;2023-04-24T09:11:10;10.60;99.90
9223;DHT22;7557;51.698;3.942;2023-04-24T09:13:38;10.50;99.90
9223;DHT22;7557;51.698;3.942;2023-04-24T09:16:05;10.40;99.90
9223;DHT22;7557;51.698;3.942;2023-04-24T09:18:32;10.30;99.90
9223;DHT22;7557;51.698;3.942;2023-04-24T09:21:02;10.20;99.90
9223;DHT22;7557;51.698;3.942;2023-04-24T09:23:31;10.20;99.90
9223;DHT22;7557;51.698;3.942;2023-04-24T09:26:02;10.20;99.90
9223;DHT22;7557;51.698;3.942;2023-04-24T09:28:33;10.30;99.90
9223;DHT22;7557;51.698;3.942;2023-04-24T09:31:03;10.40;99.90
9223;DHT22;7557;51.698;3.942;2023-04-24T09:33:31;10.40;99.90
9223;DHT22;7557;51.698;3.942;2023-04-24T09:35:58;10.40;99.90
9223;DHT22;7557;51.698;3.942;2023-04-24T09:38:35;10.40;99.90
9223;DHT22;7557;51.698;3.942;2023-04-24T09:41:06;10.50;99.90
9223;DHT22;7557;51.698;3.942;2023-04-24T09:43:35;10.50;99.90
9223;DHT22;7557;51.698;3.942;2023-04-24T09:46:05;10.60;99.90
9223;DHT22;7557;51.698;3.942;2023-04-24T09:48:34;10.60;99.90
9223;DHT22;7557;51.698;3.942;2023-04-24T09:51:03;10.50;99.90
9223;DHT22;7557;51.698;3.942;2023-04-24T09:53:32;10.50;99.90
9223;DHT22;7557;51.698;3.942;2023-04-24T09:56:06;10.50;99.90
9223;DHT22;7557;51.698;3.942;2023-04-24T09:58:35;10.50;99.90
9223;DHT22;7557;51.698;3.942;2023-04-24T10:01:03;10.60;99.90
9223;DHT22;7557;51.698;3.942;2023-04-24T10:03:32;10.60;99.90
9223;DHT22;7557;51.698;3.942;2023-04-24T10:06:00;10.50;99.90
9223;DHT22;7557;51.698;3.942;2023-04-24T10:08:33;10.40;99.90
9223;DHT22;7557;51.698;3.942;2023-04-24T10:11:01;10.30;99.90
9223;DHT22;7557;51.698;3.942;2023-04-24T10:13:30;10.20;99.90
9223;DHT22;7557;51.698;3.942;2023-04-24T10:15:59;10.10;99.90
9223;DHT22;7557;51.698;3.942;2023-04-24T10:18:27;10.10;99.90
9223;DHT22;7557;51.698;3.942;2023-04-24T10:20:56;10.20;99.90
9223;DHT22;7557;51.698;3.942;2023-04-24T10:23:25;10.30;99.90
9223;DHT22;7557;51.698;3.942;2023-04-24T10:25:52;10.40;99.90
9223;DHT22;7557;51.698;3.942;2023-04-24T10:28:20;10.50;99.90
9223;DHT22;7557;51.698;3.942;2023-04-24T10:30:50;10.60;99.90
9223;DHT22;7557;51.698;3.942;2023-04-24T10:33:22;10.70;99.90
9223;DHT22;7557;51.698;3.942;2023-04-24T10:35:51;10.80;99.90
9223;DHT22;7557;51.698;3.942;2023-04-24T10:38:22;10.90;99.90
9223;DHT22;7557;51.698;3.942;2023-04-24T10:40:51;10.90;99.90
9223;DHT22;7557;51.698;3.942;2023-04-24T10:43:19;10.90;99.90
9223;DHT22;7557;51.698;3.942;2023-04-24T10:46:03;10.80;99.90
9223;DHT22;7557;51.698;3.942;2023-04-24T10:48:31;10.80;99.90
9223;DHT22;7557;51.698;3.942;2023-04-24T10:50:58;10.80;99.90
9223;DHT22;7557;51.698;3.942;2023-04-24T10:53:28;10.80;99.90
9223;DHT22;7557;51.698;3.942;2023-04-24T10:55:58;10.80;99.90
9223;DHT22;7557;51.698;3.942;2023-04-24T10:58:37;10.90;99.90
9223;DHT22;7557;51.698;3.942;2023-04-24T11:01:07;10.90;99.90
9223;DHT22;7557;51.698;3.942;2023-04-24T11:03:35;11.00;99.90
9223;DHT22;7557;51.698;3.942;2023-04-24T11:06:04;11.00;99.90
9223;DHT22;7557;51.698;3.942;2023-04-24T11:08:37;11.00;99.90
9223;DHT22;7557;51.698;3.942;2023-04-24T11:11:09;11.00;99.90
9223;DHT22;7557;51.698;3.942;2023-04-24T11:14:03;10.90;99.90
9223;DHT22;7557;51.698;3.942;2023-04-24T11:16:35;10.80;99.90
9223;DHT22;7557;51.698;3.942;2023-04-24T11:19:06;10.70;99.90
9223;DHT22;7557;51.698;3.942;2023-04-24T11:21:41;10.70;99.90
9223;DHT22;7557;51.698;3.942;2023-04-24T11:24:28;10.70;99.90
9223;DHT22;7557;51.698;3.942;2023-04-24T11:26:58;10.70;99.90
9223;DHT22;7557;51.698;3.942;2023-04-24T11:29:44;10.60;99.90
9223;DHT22;7557;51.698;3.942;2023-04-24T11:32:18;10.50;99.90
9223;DHT22;7557;51.698;3.942;2023-04-24T11:34:49;10.50;99.90
9223;DHT22;7557;51.698;3.942;2023-04-24T11:37:16;10.50;99.90
9223;DHT22;7557;51.698;3.942;2023-04-24T11:39:44;10.70;99.90
9223;DHT22;7557;51.698;3.942;2023-04-24T11:42:14;10.70;99.90
9223;DHT22;7557;51.698;3.942;2023-04-24T11:44:42;10.70;99.90
9223;DHT22;7557;51.698;3.942;2023-04-24T11:47:10;10.70;99.90
9223;DHT22;7557;51.698;3.942;2023-04-24T11:49:38;10.70;99.90
9223;DHT22;7557;51.698;3.942;2023-04-24T11:52:06;10.80;99.90
9223;DHT22;7557;51.698;3.942;2023-04-24T11:54:33;10.90;99.90
9223;DHT22;7557;51.698;3.942;2023-04-24T11:57:04;11.00;99.90
9223;DHT22;7557;51.698;3.942;2023-04-24T11:59:35;11.20;99.90
9223;DHT22;7557;51.698;3.942;2023-04-24T12:02:03;11.30;99.90
9223;DHT22;7557;51.698;3.942;2023-04-24T12:04:40;11.40;99.90
9223;DHT22;7557;51.698;3.942;2023-04-24T12:07:08;11.70;99.90
9223;DHT22;7557;51.698;3.942;2023-04-24T12:09:42;11.70;99.90
9223;DHT22;7557;51.698;3.942;2023-04-24T12:12:12;11.60;99.90
9223;DHT22;7557;51.698;3.942;2023-04-24T12:14:44;11.50;99.90
9223;DHT22;7557;51.698;3.942;2023-04-24T12:17:11;11.20;99.90
9223;DHT22;7557;51.698;3.942;2023-04-24T12:19:45;11.00;99.90
9223;DHT22;7557;51.698;3.942;2023-04-24T12:22:13;10.80;99.90
9223;DHT22;7557;51.698;3.942;2023-04-24T12:24:57;10.60;99.90
9223;DHT22;7557;51.698;3.942;2023-04-24T12:27:25;10.50;99.90
9223;DHT22;7557;51.698;3.942;2023-04-24T12:29:53;10.50;99.90
9223;DHT22;7557;51.698;3.942;2023-04-24T12:32:20;10.50;99.90
9223;DHT22;7557;51.698;3.942;2023-04-24T12:34:49;10.40;99.90
9223;DHT22;7557;51.698;3.942;2023-04-24T12:37:17;10.50;99.90
9223;DHT22;7557;51.698;3.942;2023-04-24T12:40:02;10.50;99.90
9223;DHT22;7557;51.698;3.942;2023-04-24T12:42:31;10.60;99.90
9223;DHT22;7557;51.698;3.942;2023-04-24T12:45:00;10.80;99.90
9223;DHT22;7557;51.698;3.942;2023-04-24T12:47:28;10.80;99.90
9223;DHT22;7557;51.698;3.942;2023-04-24T12:49:57;10.80;99.90
9223;DHT22;7557;51.698;3.942;2023-04-24T12:52:26;10.90;99.90
9223;DHT22;7557;51.698;3.942;2023-04-24T12:54:54;11.00;99.90
9223;DHT22;7557;51.698;3.942;2023-04-24T12:57:21;11.00;99.90
9223;DHT22;7557;51.698;3.942;2023-04-24T12:59:49;11.10;99.90
9223;DHT22;7557;51.698;3.942;2023-04-24T13:02:16;11.10;99.90
9223;DHT22;7557;51.698;3.942;2023-04-24T13:04:44;11.10;99.90
9223;DHT22;7557;51.698;3.942;2023-04-24T13:07:14;11.10;99.90
9223;DHT22;7557;51.698;3.942;2023-04-24T13:09:42;11.20;99.90
9223;DHT22;7557;51.698;3.942;2023-04-24T13:12:10;11.20;99.90
9223;DHT22;7557;51.698;3.942;2023-04-24T13:14:38;11.20;99.90
9223;DHT22;7557;51.698;3.942;2023-04-24T13:17:05;11.30;99.90
9223;DHT22;7557;51.698;3.942;2023-04-24T13:19:36;11.30;99.90
9223;DHT22;7557;51.698;3.942;2023-04-24T13:22:04;11.30;99.90
9223;DHT22;7557;51.698;3.942;2023-04-24T13:24:33;11.20;99.90
9223;DHT22;7557;51.698;3.942;2023-04-24T13:27:01;11.20;99.90
9223;DHT22;7557;51.698;3.942;2023-04-24T13:29:28;11.10;99.90
9223;DHT22;7557;51.698;3.942;2023-04-24T13:31:55;11.10;99.90
9223;DHT22;7557;51.698;3.942;2023-04-24T13:34:23;11.10;99.90
9223;DHT22;7557;51.698;3.942;2023-04-24T13:36:51;11.10;99.90
9223;DHT22;7557;51.698;3.942;2023-04-24T13:39:18;11.10;99.90
9223;DHT22;7557;51.698;3.942;2023-04-24T13:41:47;11.20;99.90
9223;DHT22;7557;51.698;3.942;2023-04-24T13:44:14;11.10;99.90
9223;DHT22;7557;51.698;3.942;2023-04-24T13:46:42;11.00;99.90
9223;DHT22;7557;51.698;3.942;2023-04-24T13:49:11;11.00;99.90
9223;DHT22;7557;51.698;3.942;2023-04-24T13:51:38;11.00;99.90
9223;DHT22;7557;51.698;3.942;2023-04-24T13:54:06;10.90;99.90
9223;DHT22;7557;51.698;3.942;2023-04-24T13:56:34;10.70;99.90
9223;DHT22;7557;51.698;3.942;2023-04-24T13:59:03;10.60;99.90
9223;DHT22;7557;51.698;3.942;2023-04-24T14:01:30;10.60;99.90
9223;DHT22;7557;51.698;3.942;2023-04-24T14:03:57;10.60;99.90
9223;DHT22;7557;51.698;3.942;2023-04-24T14:06:25;10.80;99.90
9223;DHT22;7557;51.698;3.942;2023-04-24T14:08:52;10.90;99.90
9223;DHT22;7557;51.698;3.942;2023-04-24T14:11:20;10.90;99.90
9223;DHT22;7557;51.698;3.942;2023-04-24T14:13:47;11.00;99.90
9223;DHT22;7557;51.698;3.942;2023-04-24T14:16:16;11.00;99.90
9223;DHT22;7557;51.698;3.942;2023-04-24T14:18:43;11.00;99.90
9223;DHT22;7557;51.698;3.942;2023-04-24T14:21:11;11.00;99.90
9223;DHT22;7557;51.698;3.942;2023-04-24T14:23:38;10.90;99.90
9223;DHT22;7557;51.698;3.942;2023-04-24T14:26:05;10.80;99.90
9223;DHT22;7557;51.698;3.942;2023-04-24T14:28:32;10.80;99.90
9223;DHT22;7557;51.698;3.942;2023-04-24T14:31:00;10.70;99.90
9223;DHT22;7557;51.698;3.942;2023-04-24T14:33:28;10.70;99.90
9223;DHT22;7557;51.698;3.942;2023-04-24T14:35:56;10.80;99.90
9223;DHT22;7557;51.698;3.942;2023-04-24T14:38:24;10.80;99.90
9223;DHT22;7557;51.698;3.942;2023-04-24T14:40:52;10.80;99.90
9223;DHT22;7557;51.698;3.942;2023-04-24T14:43:19;10.80;99.90
9223;DHT22;7557;51.698;3.942;2023-04-24T14:45:46;10.70;99.90
9223;DHT22;7557;51.698;3.942;2023-04-24T14:48:14;10.50;99.90
9223;DHT22;7557;51.698;3.942;2023-04-24T14:50:43;10.50;99.90
9223;DHT22;7557;51.698;3.942;2023-04-24T14:53:10;10.50;99.90
9223;DHT22;7557;51.698;3.942;2023-04-24T14:55:38;10.60;99.90
9223;DHT22;7557;51.698;3.942;2023-04-24T14:58:05;10.80;99.90
9223;DHT22;7557;51.698;3.942;2023-04-24T15:00:32;11.00;99.90
9223;DHT22;7557;51.698;3.942;2023-04-24T15:03:00;11.10;99.90
9223;DHT22;7557;51.698;3.942;2023-04-24T15:05:28;11.20;99.90
9223;DHT22;7557;51.698;3.942;2023-04-24T15:07:57;11.30;99.90
9223;DHT22;7557;51.698;3.942;2023-04-24T15:10:24;11.30;99.90
9223;DHT22;7557;51.698;3.942;2023-04-24T15:12:52;11.20;99.90
9223;DHT22;7557;51.698;3.942;2023-04-24T15:15:19;11.20;99.90
9223;DHT22;7557;51.698;3.942;2023-04-24T15:17:46;11.20;99.90
9223;DHT22;7557;51.698;3.942;2023-04-24T15:20:14;11.20;99.90
9223;DHT22;7557;51.698;3.942;2023-04-24T15:22:41;11.30;99.90
9223;DHT22;7557;51.698;3.942;2023-04-24T15:25:10;11.40;99.90
9223;DHT22;7557;51.698;3.942;2023-04-24T15:27:41;11.40;99.90
9223;DHT22;7557;51.698;3.942;2023-04-24T15:30:10;11.50;99.90
9223;DHT22;7557;51.698;3.942;2023-04-24T15:32:38;11.50;99.90
9223;DHT22;7557;51.698;3.942;2023-04-24T15:35:06;11.40;99.90
9223;DHT22;7557;51.698;3.942;2023-04-24T15:37:34;11.50;99.90
9223;DHT22;7557;51.698;3.942;2023-04-24T15:40:01;11.50;99.90
9223;DHT22;7557;51.698;3.942;2023-04-24T15:42:31;11.40;99.90
9223;DHT22;7557;51.698;3.942;2023-04-24T15:44:58;11.40;99.90
9223;DHT22;7557;51.698;3.942;2023-04-24T15:47:25;11.40;99.90
9223;DHT22;7557;51.698;3.942;2023-04-24T15:49:53;11.40;99.90
9223;DHT22;7557;51.698;3.942;2023-04-24T15:52:20;11.40;99.90
9223;DHT22;7557;51.698;3.942;2023-04-24T15:54:48;11.50;99.90
9223;DHT22;7557;51.698;3.942;2023-04-24T15:57:15;11.50;99.90
9223;DHT22;7557;51.698;3.942;2023-04-24T15:59:44;11.50;99.90
9223;DHT22;7557;51.698;3.942;2023-04-24T16:02:13;11.50;99.90
9223;DHT22;7557;51.698;3.942;2023-04-24T16:04:44;11.40;99.90
9223;DHT22;7557;51.698;3.942;2023-04-24T16:07:12;11.40;99.90
9223;DHT22;7557;51.698;3.942;2023-04-24T16:09:39;11.40;99.90
9223;DHT22;7557;51.698;3.942;2023-04-24T16:12:07;11.30;99.90
9223;DHT22;7557;51.698;3.942;2023-04-24T16:14:35;11.20;99.90